Angora, Minnesota
Current Conditions -  °F | °C
As of 7:54 PM on Monday 24 Nov 2014 (Local Time) from KCQM Reporting Station
Light Snow Light Snow  
Wind Chill:   Ceiling: 2300
Heat Index: 16°   Visibility: 5mi
Dew Point: 12°   Wind: 7mph
Humidity: 86%   Direction: 320°NW
Pressure: 29.76"   Gusts: NA
Location:  47.77°N, 92.63°W
Report Text: KCQM 250154Z AUTO 32006KT 5SM -SN OVC023 M09/M11 A2976 RMK AO2
Loading
Personal Weather Stations






























Interactive Weather Map New forecast layout! Learn more

10-Day Weather Forecast

Advertisements
Track Severe Weather on mobile